LFLS/GNB METAR and TAF weather

Enter ICAO airport designator
Station Type Date Time Source
LFLS METAR 2022/07/01 00:30 UTC NOAA

LFLS 010030Z AUTO 32003KT 260V020 9999 -RA BKN016/// BKN072/// OVC120/// ///CB 14/12 Q1020


Station Type Date Time Source
LFLS Decoded METAR 2022/07/01 00:30 UTC NOAA

Grenoble / St. Geoirs, France (LFLS) 45-22N 005-20E 386M
Jun 30, 2022 - 08:30 PM EDT / 2022.07.01 0030 UTC
Wind: from the NW (320 degrees) at 3 MPH (3 KT) (direction variable):0
Visibility: greater than 7 mile(s):0
Sky conditions: overcast
Weather: light rain; Cumulonimbus clouds observed
Temperature: 57 F (14 C)
Dew Point: 53 F (12 C)
Relative Humidity: 87%
Pressure (altimeter): 30.12 in. Hg (1020 hPa)
ob: LFLS 010030Z AUTO 32003KT 260V020 9999 -RA BKN016/// BKN072/// OVC120/// ///CB 14/12 Q1020
cycle: 0

Station Type Date Time Source
LFLS TAF 2022/06/30 19:09 UTC NOAA

TAF TAF LFLS 301903Z 3019/0115 CNL

Example: see airport list